sensor_id;sensor_type;location;lat;lon;timestamp;temperature;humidity
78297;DHT22;67555;47.660;19.622;2024-02-04T00:00:06;8.40;74.10
78297;DHT22;67555;47.660;19.622;2024-02-04T00:02:32;8.40;74.20
78297;DHT22;67555;47.660;19.622;2024-02-04T00:04:57;8.40;74.30
78297;DHT22;67555;47.660;19.622;2024-02-04T00:07:23;8.30;74.30
78297;DHT22;67555;47.660;19.622;2024-02-04T00:09:49;8.30;74.30
78297;DHT22;67555;47.660;19.622;2024-02-04T00:12:14;8.30;74.40
78297;DHT22;67555;47.660;19.622;2024-02-04T00:14:40;8.20;74.60
78297;DHT22;67555;47.660;19.622;2024-02-04T00:17:06;8.20;74.70
78297;DHT22;67555;47.660;19.622;2024-02-04T00:19:32;8.20;74.70
78297;DHT22;67555;47.660;19.622;2024-02-04T00:21:57;8.10;74.80
78297;DHT22;67555;47.660;19.622;2024-02-04T00:24:23;8.10;75.00
78297;DHT22;67555;47.660;19.622;2024-02-04T00:26:49;8.10;75.10
78297;DHT22;67555;47.660;19.622;2024-02-04T00:29:15;8.00;75.30
78297;DHT22;67555;47.660;19.622;2024-02-04T00:31:40;8.00;75.40
78297;DHT22;67555;47.660;19.622;2024-02-04T00:34:06;8.00;75.60
78297;DHT22;67555;47.660;19.622;2024-02-04T00:36:32;7.90;75.80
78297;DHT22;67555;47.660;19.622;2024-02-04T00:38:58;8.00;75.70
78297;DHT22;67555;47.660;19.622;2024-02-04T00:41:23;8.00;75.60
78297;DHT22;67555;47.660;19.622;2024-02-04T00:43:50;8.00;75.50
78297;DHT22;67555;47.660;19.622;2024-02-04T00:46:16;8.00;75.30
78297;DHT22;67555;47.660;19.622;2024-02-04T00:48:41;8.00;75.30
78297;DHT22;67555;47.660;19.622;2024-02-04T00:51:07;8.00;75.40
78297;DHT22;67555;47.660;19.622;2024-02-04T00:53:33;8.00;75.50
78297;DHT22;67555;47.660;19.622;2024-02-04T00:56:02;8.00;75.80
78297;DHT22;67555;47.660;19.622;2024-02-04T00:58:28;7.80;76.10
78297;DHT22;67555;47.660;19.622;2024-02-04T01:00:54;7.80;76.20
78297;DHT22;67555;47.660;19.622;2024-02-04T01:03:20;7.80;76.40
78297;DHT22;67555;47.660;19.622;2024-02-04T01:05:45;7.80;76.50
78297;DHT22;67555;47.660;19.622;2024-02-04T01:08:11;7.80;76.40
78297;DHT22;67555;47.660;19.622;2024-02-04T01:10:37;7.80;76.50
78297;DHT22;67555;47.660;19.622;2024-02-04T01:13:04;7.80;76.60
78297;DHT22;67555;47.660;19.622;2024-02-04T01:15:30;7.80;76.60
78297;DHT22;67555;47.660;19.622;2024-02-04T01:17:55;7.80;76.70
78297;DHT22;67555;47.660;19.622;2024-02-04T01:20:21;7.80;76.70
78297;DHT22;67555;47.660;19.622;2024-02-04T01:22:47;7.80;76.80
78297;DHT22;67555;47.660;19.622;2024-02-04T01:25:13;7.80;76.90
78297;DHT22;67555;47.660;19.622;2024-02-04T01:27:39;7.70;77.00
78297;DHT22;67555;47.660;19.622;2024-02-04T01:30:05;7.70;77.10
78297;DHT22;67555;47.660;19.622;2024-02-04T01:32:31;7.60;77.20
78297;DHT22;67555;47.660;19.622;2024-02-04T01:34:57;7.60;77.30
78297;DHT22;67555;47.660;19.622;2024-02-04T01:37:23;7.60;77.50
78297;DHT22;67555;47.660;19.622;2024-02-04T01:39:49;7.60;77.50
78297;DHT22;67555;47.660;19.622;2024-02-04T01:42:14;7.60;77.50
78297;DHT22;67555;47.660;19.622;2024-02-04T01:44:40;7.60;77.60
78297;DHT22;67555;47.660;19.622;2024-02-04T01:47:07;7.50;77.70
78297;DHT22;67555;47.660;19.622;2024-02-04T01:49:33;7.50;77.70
78297;DHT22;67555;47.660;19.622;2024-02-04T01:52:00;7.50;77.80
78297;DHT22;67555;47.660;19.622;2024-02-04T01:54:27;7.60;77.70
78297;DHT22;67555;47.660;19.622;2024-02-04T01:56:53;7.60;77.50
78297;DHT22;67555;47.660;19.622;2024-02-04T01:59:20;7.60;77.50
78297;DHT22;67555;47.660;19.622;2024-02-04T02:01:54;7.60;77.50
78297;DHT22;67555;47.660;19.622;2024-02-04T02:04:20;7.70;77.50
78297;DHT22;67555;47.660;19.622;2024-02-04T02:06:46;7.80;77.40
78297;DHT22;67555;47.660;19.622;2024-02-04T02:09:12;7.80;77.30
78297;DHT22;67555;47.660;19.622;2024-02-04T02:11:44;7.80;77.30
78297;DHT22;67555;47.660;19.622;2024-02-04T02:14:16;7.80;77.20
78297;DHT22;67555;47.660;19.622;2024-02-04T02:16:44;7.80;77.10
78297;DHT22;67555;47.660;19.622;2024-02-04T02:21:56;8.00;76.80
78297;DHT22;67555;47.660;19.622;2024-02-04T02:24:27;8.10;76.40
78297;DHT22;67555;47.660;19.622;2024-02-04T02:26:53;8.00;76.20
78297;DHT22;67555;47.660;19.622;2024-02-04T02:29:28;7.80;76.40
78297;DHT22;67555;47.660;19.622;2024-02-04T02:31:54;7.80;76.80
78297;DHT22;67555;47.660;19.622;2024-02-04T02:34:20;7.60;77.00
78297;DHT22;67555;47.660;19.622;2024-02-04T02:36:52;7.50;77.30
78297;DHT22;67555;47.660;19.622;2024-02-04T02:39:24;7.40;77.60
78297;DHT22;67555;47.660;19.622;2024-02-04T02:41:54;7.30;77.80
78297;DHT22;67555;47.660;19.622;2024-02-04T02:44:21;7.20;77.90
78297;DHT22;67555;47.660;19.622;2024-02-04T02:46:49;7.20;77.90
78297;DHT22;67555;47.660;19.622;2024-02-04T02:49:15;7.20;78.00
78297;DHT22;67555;47.660;19.622;2024-02-04T02:51:41;7.20;77.90
78297;DHT22;67555;47.660;19.622;2024-02-04T02:54:08;7.30;77.80
78297;DHT22;67555;47.660;19.622;2024-02-04T02:56:33;7.30;77.70
78297;DHT22;67555;47.660;19.622;2024-02-04T02:58:59;7.30;77.60
78297;DHT22;67555;47.660;19.622;2024-02-04T03:01:25;7.20;77.60
78297;DHT22;67555;47.660;19.622;2024-02-04T03:03:51;7.20;77.70
78297;DHT22;67555;47.660;19.622;2024-02-04T03:06:16;7.20;77.90
78297;DHT22;67555;47.660;19.622;2024-02-04T03:08:42;7.20;77.90
78297;DHT22;67555;47.660;19.622;2024-02-04T03:11:08;7.20;77.90
78297;DHT22;67555;47.660;19.622;2024-02-04T03:13:33;7.40;77.50
78297;DHT22;67555;47.660;19.622;2024-02-04T03:15:59;7.50;77.00
78297;DHT22;67555;47.660;19.622;2024-02-04T03:18:25;7.70;76.50
78297;DHT22;67555;47.660;19.622;2024-02-04T03:20:51;7.80;76.10
78297;DHT22;67555;47.660;19.622;2024-02-04T03:23:17;7.80;75.90
78297;DHT22;67555;47.660;19.622;2024-02-04T03:25:42;8.00;75.70
78297;DHT22;67555;47.660;19.622;2024-02-04T03:28:08;8.00;75.40
78297;DHT22;67555;47.660;19.622;2024-02-04T03:30:34;8.10;75.30
78297;DHT22;67555;47.660;19.622;2024-02-04T03:32:59;8.10;75.10
78297;DHT22;67555;47.660;19.622;2024-02-04T03:35:25;8.20;75.00
78297;DHT22;67555;47.660;19.622;2024-02-04T03:37:51;8.30;74.70
78297;DHT22;67555;47.660;19.622;2024-02-04T03:40:17;8.30;74.50
78297;DHT22;67555;47.660;19.622;2024-02-04T03:42:44;8.40;74.40
78297;DHT22;67555;47.660;19.622;2024-02-04T03:45:10;8.40;74.20
78297;DHT22;67555;47.660;19.622;2024-02-04T03:47:36;8.50;74.10
78297;DHT22;67555;47.660;19.622;2024-02-04T03:50:02;8.40;74.00
78297;DHT22;67555;47.660;19.622;2024-02-04T03:52:28;8.40;74.00
78297;DHT22;67555;47.660;19.622;2024-02-04T03:54:54;8.30;74.20
78297;DHT22;67555;47.660;19.622;2024-02-04T03:57:19;8.30;74.20
78297;DHT22;67555;47.660;19.622;2024-02-04T03:59:45;8.30;74.30
78297;DHT22;67555;47.660;19.622;2024-02-04T04:02:12;8.30;74.30
78297;DHT22;67555;47.660;19.622;2024-02-04T04:04:40;8.30;74.30
78297;DHT22;67555;47.660;19.622;2024-02-04T04:07:12;8.20;74.30
78297;DHT22;67555;47.660;19.622;2024-02-04T04:09:38;8.20;74.30
78297;DHT22;67555;47.660;19.622;2024-02-04T04:12:04;8.20;74.40
78297;DHT22;67555;47.660;19.622;2024-02-04T04:14:30;8.20;74.30
78297;DHT22;67555;47.660;19.622;2024-02-04T04:16:56;8.20;74.40
78297;DHT22;67555;47.660;19.622;2024-02-04T04:19:21;8.20;74.40
78297;DHT22;67555;47.660;19.622;2024-02-04T04:21:47;8.20;74.50
78297;DHT22;67555;47.660;19.622;2024-02-04T04:24:13;8.20;74.50
78297;DHT22;67555;47.660;19.622;2024-02-04T04:26:42;8.10;74.50
78297;DHT22;67555;47.660;19.622;2024-02-04T04:29:10;8.10;74.60
78297;DHT22;67555;47.660;19.622;2024-02-04T04:31:36;8.10;74.70
78297;DHT22;67555;47.660;19.622;2024-02-04T04:34:01;8.10;74.80
78297;DHT22;67555;47.660;19.622;2024-02-04T04:36:27;8.00;75.00
78297;DHT22;67555;47.660;19.622;2024-02-04T04:38:53;8.00;75.20
78297;DHT22;67555;47.660;19.622;2024-02-04T04:41:18;8.00;75.30
78297;DHT22;67555;47.660;19.622;2024-02-04T04:43:44;8.00;75.50
78297;DHT22;67555;47.660;19.622;2024-02-04T04:46:10;8.00;75.60
78297;DHT22;67555;47.660;19.622;2024-02-04T04:48:37;8.00;75.80
78297;DHT22;67555;47.660;19.622;2024-02-04T04:51:03;7.80;76.50
78297;DHT22;67555;47.660;19.622;2024-02-04T04:53:28;7.60;77.50
78297;DHT22;67555;47.660;19.622;2024-02-04T04:55:54;7.50;78.10
78297;DHT22;67555;47.660;19.622;2024-02-04T04:58:20;7.60;78.30
78297;DHT22;67555;47.660;19.622;2024-02-04T05:00:46;7.60;78.20
78297;DHT22;67555;47.660;19.622;2024-02-04T05:03:12;7.70;78.00
78297;DHT22;67555;47.660;19.622;2024-02-04T05:05:38;7.80;77.70
78297;DHT22;67555;47.660;19.622;2024-02-04T05:08:04;7.90;77.40
78297;DHT22;67555;47.660;19.622;2024-02-04T05:10:30;8.00;77.20
78297;DHT22;67555;47.660;19.622;2024-02-04T05:12:56;8.00;77.00
78297;DHT22;67555;47.660;19.622;2024-02-04T05:15:21;8.00;77.00
78297;DHT22;67555;47.660;19.622;2024-02-04T05:17:47;8.10;77.00
78297;DHT22;67555;47.660;19.622;2024-02-04T05:20:13;8.10;76.90
78297;DHT22;67555;47.660;19.622;2024-02-04T05:22:39;8.10;77.00
78297;DHT22;67555;47.660;19.622;2024-02-04T05:25:05;8.10;77.00
78297;DHT22;67555;47.660;19.622;2024-02-04T05:27:31;8.10;77.00
78297;DHT22;67555;47.660;19.622;2024-02-04T05:29:58;8.10;77.00
78297;DHT22;67555;47.660;19.622;2024-02-04T05:32:24;8.20;76.90
78297;DHT22;67555;47.660;19.622;2024-02-04T05:34:49;8.20;76.90
78297;DHT22;67555;47.660;19.622;2024-02-04T05:37:15;8.20;77.00
78297;DHT22;67555;47.660;19.622;2024-02-04T05:39:41;8.20;77.00
78297;DHT22;67555;47.660;19.622;2024-02-04T05:42:06;8.20;77.00
78297;DHT22;67555;47.660;19.622;2024-02-04T05:44:32;8.20;77.00
78297;DHT22;67555;47.660;19.622;2024-02-04T05:46:58;8.20;77.00
78297;DHT22;67555;47.660;19.622;2024-02-04T05:49:25;8.20;77.00
78297;DHT22;67555;47.660;19.622;2024-02-04T05:51:51;8.20;77.00
78297;DHT22;67555;47.660;19.622;2024-02-04T05:54:16;8.20;77.00
78297;DHT22;67555;47.660;19.622;2024-02-04T05:56:42;8.20;77.00
78297;DHT22;67555;47.660;19.622;2024-02-04T05:59:08;8.20;77.00
78297;DHT22;67555;47.660;19.622;2024-02-04T06:01:34;8.20;77.00
78297;DHT22;67555;47.660;19.622;2024-02-04T06:03:59;8.20;77.00
78297;DHT22;67555;47.660;19.622;2024-02-04T06:06:25;8.20;77.10
78297;DHT22;67555;47.660;19.622;2024-02-04T06:08:52;8.20;77.10
78297;DHT22;67555;47.660;19.622;2024-02-04T06:11:17;8.20;77.30
78297;DHT22;67555;47.660;19.622;2024-02-04T06:13:44;8.00;78.00
78297;DHT22;67555;47.660;19.622;2024-02-04T06:16:10;7.80;78.70
78297;DHT22;67555;47.660;19.622;2024-02-04T06:18:38;7.70;79.10
78297;DHT22;67555;47.660;19.622;2024-02-04T06:21:07;7.70;79.60
78297;DHT22;67555;47.660;19.622;2024-02-04T06:23:35;7.70;79.80
78297;DHT22;67555;47.660;19.622;2024-02-04T06:26:01;7.70;79.90
78297;DHT22;67555;47.660;19.622;2024-02-04T06:28:27;7.60;80.20
78297;DHT22;67555;47.660;19.622;2024-02-04T06:30:52;7.60;80.30
78297;DHT22;67555;47.660;19.622;2024-02-04T06:33:19;7.60;80.60
78297;DHT22;67555;47.660;19.622;2024-02-04T06:35:45;7.50;80.70
78297;DHT22;67555;47.660;19.622;2024-02-04T06:38:11;7.50;80.70
78297;DHT22;67555;47.660;19.622;2024-02-04T06:40:36;7.60;80.80
78297;DHT22;67555;47.660;19.622;2024-02-04T06:43:02;7.60;80.80
78297;DHT22;67555;47.660;19.622;2024-02-04T06:45:28;7.60;80.70
78297;DHT22;67555;47.660;19.622;2024-02-04T06:47:54;7.70;80.80
78297;DHT22;67555;47.660;19.622;2024-02-04T06:50:19;7.80;80.70
78297;DHT22;67555;47.660;19.622;2024-02-04T06:52:46;7.80;80.50
78297;DHT22;67555;47.660;19.622;2024-02-04T06:55:12;7.80;80.30
78297;DHT22;67555;47.660;19.622;2024-02-04T06:57:38;8.00;80.10
78297;DHT22;67555;47.660;19.622;2024-02-04T07:00:06;8.00;80.10
78297;DHT22;67555;47.660;19.622;2024-02-04T07:02:34;8.00;80.10
78297;DHT22;67555;47.660;19.622;2024-02-04T07:05:00;8.00;80.00
78297;DHT22;67555;47.660;19.622;2024-02-04T07:07:25;8.20;79.70
78297;DHT22;67555;47.660;19.622;2024-02-04T07:09:51;8.30;79.40
78297;DHT22;67555;47.660;19.622;2024-02-04T07:12:17;8.40;79.30
78297;DHT22;67555;47.660;19.622;2024-02-04T07:14:43;8.50;79.00
78297;DHT22;67555;47.660;19.622;2024-02-04T07:17:08;8.60;78.70
78297;DHT22;67555;47.660;19.622;2024-02-04T07:19:34;8.60;78.50
78297;DHT22;67555;47.660;19.622;2024-02-04T07:22:01;8.70;78.40
78297;DHT22;67555;47.660;19.622;2024-02-04T07:24:27;8.80;78.20
78297;DHT22;67555;47.660;19.622;2024-02-04T07:26:52;8.90;78.00
78297;DHT22;67555;47.660;19.622;2024-02-04T07:29:18;8.90;77.80
78297;DHT22;67555;47.660;19.622;2024-02-04T07:31:45;9.00;77.70
78297;DHT22;67555;47.660;19.622;2024-02-04T07:34:11;9.00;77.60
78297;DHT22;67555;47.660;19.622;2024-02-04T07:36:38;9.10;77.30
78297;DHT22;67555;47.660;19.622;2024-02-04T07:39:05;9.20;77.10
78297;DHT22;67555;47.660;19.622;2024-02-04T07:41:31;9.30;77.00
78297;DHT22;67555;47.660;19.622;2024-02-04T07:44:06;9.40;76.60
78297;DHT22;67555;47.660;19.622;2024-02-04T07:49:33;9.40;76.60
78297;DHT22;67555;47.660;19.622;2024-02-04T07:52:05;9.40;76.60
78297;DHT22;67555;47.660;19.622;2024-02-04T07:54:34;9.40;76.70
78297;DHT22;67555;47.660;19.622;2024-02-04T07:56:59;9.40;76.50
78297;DHT22;67555;47.660;19.622;2024-02-04T07:59:25;9.40;76.50
78297;DHT22;67555;47.660;19.622;2024-02-04T08:01:51;9.50;76.40
78297;DHT22;67555;47.660;19.622;2024-02-04T08:04:17;9.60;76.20
78297;DHT22;67555;47.660;19.622;2024-02-04T08:06:42;9.60;76.10
78297;DHT22;67555;47.660;19.622;2024-02-04T08:09:08;9.60;76.10
78297;DHT22;67555;47.660;19.622;2024-02-04T08:11:34;9.60;76.00
78297;DHT22;67555;47.660;19.622;2024-02-04T08:14:00;9.60;76.00
78297;DHT22;67555;47.660;19.622;2024-02-04T08:16:26;9.80;75.80
78297;DHT22;67555;47.660;19.622;2024-02-04T08:18:51;9.80;75.70
78297;DHT22;67555;47.660;19.622;2024-02-04T08:21:17;9.80;75.70
78297;DHT22;67555;47.660;19.622;2024-02-04T08:23:44;9.90;75.60
78297;DHT22;67555;47.660;19.622;2024-02-04T08:26:10;9.90;75.50
78297;DHT22;67555;47.660;19.622;2024-02-04T08:28:56;10.00;75.60
78297;DHT22;67555;47.660;19.622;2024-02-04T08:31:23;10.00;75.40
78297;DHT22;67555;47.660;19.622;2024-02-04T08:33:49;10.10;75.30
78297;DHT22;67555;47.660;19.622;2024-02-04T08:36:15;10.20;75.20
78297;DHT22;67555;47.660;19.622;2024-02-04T08:38:41;10.30;74.90
78297;DHT22;67555;47.660;19.622;2024-02-04T08:41:06;10.30;74.60
78297;DHT22;67555;47.660;19.622;2024-02-04T08:43:32;10.40;74.50
78297;DHT22;67555;47.660;19.622;2024-02-04T08:46:01;10.50;74.40
78297;DHT22;67555;47.660;19.622;2024-02-04T08:48:28;10.50;73.40
78297;DHT22;67555;47.660;19.622;2024-02-04T08:50:58;10.50;73.20
78297;DHT22;67555;47.660;19.622;2024-02-04T08:53:28;10.50;73.30
78297;DHT22;67555;47.660;19.622;2024-02-04T08:59:10;10.70;72.20
78297;DHT22;67555;47.660;19.622;2024-02-04T09:04:39;10.90;71.70
78297;DHT22;67555;47.660;19.622;2024-02-04T09:07:07;11.00;71.60
78297;DHT22;67555;47.660;19.622;2024-02-04T09:20:13;11.10;70.40
78297;DHT22;67555;47.660;19.622;2024-02-04T09:22:53;11.20;70.00
78297;DHT22;67555;47.660;19.622;2024-02-04T09:25:34;11.40;69.60
78297;DHT22;67555;47.660;19.622;2024-02-04T09:28:08;11.30;70.10
78297;DHT22;67555;47.660;19.622;2024-02-04T09:31:00;11.40;69.70
78297;DHT22;67555;47.660;19.622;2024-02-04T09:33:27;11.30;69.30
78297;DHT22;67555;47.660;19.622;2024-02-04T09:36:46;11.30;69.90
78297;DHT22;67555;47.660;19.622;2024-02-04T09:39:35;11.30;69.60
78297;DHT22;67555;47.660;19.622;2024-02-04T09:49:28;11.50;67.30
78297;DHT22;67555;47.660;19.622;2024-02-04T09:58:46;11.80;67.00
78297;DHT22;67555;47.660;19.622;2024-02-04T10:01:13;11.80;66.90
78297;DHT22;67555;47.660;19.622;2024-02-04T10:03:41;11.90;67.00
78297;DHT22;67555;47.660;19.622;2024-02-04T10:06:07;11.90;66.50
78297;DHT22;67555;47.660;19.622;2024-02-04T10:08:35;12.00;65.40
78297;DHT22;67555;47.660;19.622;2024-02-04T10:11:01;12.00;65.60
78297;DHT22;67555;47.660;19.622;2024-02-04T10:13:27;12.20;65.10
78297;DHT22;67555;47.660;19.622;2024-02-04T10:15:53;12.30;65.20
78297;DHT22;67555;47.660;19.622;2024-02-04T10:18:18;12.50;65.40
78297;DHT22;67555;47.660;19.622;2024-02-04T10:20:44;12.50;64.30
78297;DHT22;67555;47.660;19.622;2024-02-04T10:23:10;12.50;64.10
78297;DHT22;67555;47.660;19.622;2024-02-04T10:25:42;12.50;63.80
78297;DHT22;67555;47.660;19.622;2024-02-04T10:28:09;12.50;64.00
78297;DHT22;67555;47.660;19.622;2024-02-04T10:30:38;12.50;63.70
78297;DHT22;67555;47.660;19.622;2024-02-04T10:33:24;12.30;64.10
78297;DHT22;67555;47.660;19.622;2024-02-04T10:35:53;12.20;64.80
78297;DHT22;67555;47.660;19.622;2024-02-04T10:38:19;12.20;64.60
78297;DHT22;67555;47.660;19.622;2024-02-04T10:40:46;12.30;64.70
78297;DHT22;67555;47.660;19.622;2024-02-04T10:43:13;12.50;64.80
78297;DHT22;67555;47.660;19.622;2024-02-04T10:45:39;12.50;64.70
78297;DHT22;67555;47.660;19.622;2024-02-04T10:48:07;12.60;64.10
78297;DHT22;67555;47.660;19.622;2024-02-04T10:50:35;12.50;64.10
78297;DHT22;67555;47.660;19.622;2024-02-04T10:53:05;12.60;64.00
78297;DHT22;67555;47.660;19.622;2024-02-04T10:55:39;12.70;63.90
78297;DHT22;67555;47.660;19.622;2024-02-04T10:58:10;13.00;63.60
78297;DHT22;67555;47.660;19.622;2024-02-04T11:00:37;13.10;63.20
78297;DHT22;67555;47.660;19.622;2024-02-04T11:03:04;13.30;62.20
78297;DHT22;67555;47.660;19.622;2024-02-04T11:05:32;13.30;62.00
78297;DHT22;67555;47.660;19.622;2024-02-04T11:08:02;13.50;61.80
78297;DHT22;67555;47.660;19.622;2024-02-04T11:10:30;13.50;61.60
78297;DHT22;67555;47.660;19.622;2024-02-04T11:13:00;13.70;61.10
78297;DHT22;67555;47.660;19.622;2024-02-04T11:15:32;13.90;60.90
78297;DHT22;67555;47.660;19.622;2024-02-04T11:18:08;13.90;60.30
78297;DHT22;67555;47.660;19.622;2024-02-04T11:20:45;13.90;60.40
78297;DHT22;67555;47.660;19.622;2024-02-04T11:25:54;13.90;59.50
78297;DHT22;67555;47.660;19.622;2024-02-04T11:28:22;14.00;58.70
78297;DHT22;67555;47.660;19.622;2024-02-04T11:30:54;14.10;59.00
78297;DHT22;67555;47.660;19.622;2024-02-04T11:33:22;14.30;58.80
78297;DHT22;67555;47.660;19.622;2024-02-04T11:36:02;14.40;58.50
78297;DHT22;67555;47.660;19.622;2024-02-04T11:38:41;14.50;58.20
78297;DHT22;67555;47.660;19.622;2024-02-04T11:41:07;14.50;58.00
78297;DHT22;67555;47.660;19.622;2024-02-04T11:43:34;14.50;57.80
78297;DHT22;67555;47.660;19.622;2024-02-04T11:46:05;14.50;57.60
78297;DHT22;67555;47.660;19.622;2024-02-04T11:48:33;14.50;57.60
78297;DHT22;67555;47.660;19.622;2024-02-04T11:51:00;14.40;57.40
78297;DHT22;67555;47.660;19.622;2024-02-04T11:53:29;14.40;57.50
78297;DHT22;67555;47.660;19.622;2024-02-04T12:02:27;14.40;57.80
78297;DHT22;67555;47.660;19.622;2024-02-04T12:04:54;14.50;57.60
78297;DHT22;67555;47.660;19.622;2024-02-04T12:07:24;14.60;57.60
78297;DHT22;67555;47.660;19.622;2024-02-04T12:09:50;14.70;57.40
78297;DHT22;67555;47.660;19.622;2024-02-04T12:12:17;14.60;56.40
78297;DHT22;67555;47.660;19.622;2024-02-04T12:14:46;14.60;56.90
78297;DHT22;67555;47.660;19.622;2024-02-04T12:17:29;14.70;56.70
78297;DHT22;67555;47.660;19.622;2024-02-04T12:19:55;14.60;56.00
78297;DHT22;67555;47.660;19.622;2024-02-04T12:22:21;14.70;56.40
78297;DHT22;67555;47.660;19.622;2024-02-04T12:24:47;14.80;56.20
78297;DHT22;67555;47.660;19.622;2024-02-04T12:27:15;14.80;55.10
78297;DHT22;67555;47.660;19.622;2024-02-04T12:29:42;14.90;55.20
78297;DHT22;67555;47.660;19.622;2024-02-04T12:32:08;14.90;55.20
78297;DHT22;67555;47.660;19.622;2024-02-04T12:34:34;14.70;54.90
78297;DHT22;67555;47.660;19.622;2024-02-04T12:37:01;14.60;55.50
78297;DHT22;67555;47.660;19.622;2024-02-04T12:39:28;14.40;55.80
78297;DHT22;67555;47.660;19.622;2024-02-04T12:41:54;14.30;56.20
78297;DHT22;67555;47.660;19.622;2024-02-04T12:44:20;14.00;56.50
78297;DHT22;67555;47.660;19.622;2024-02-04T12:46:49;13.90;56.90
78297;DHT22;67555;47.660;19.622;2024-02-04T12:49:19;13.60;57.40
78297;DHT22;67555;47.660;19.622;2024-02-04T12:51:46;13.60;57.70
78297;DHT22;67555;47.660;19.622;2024-02-04T12:54:12;13.60;57.80
78297;DHT22;67555;47.660;19.622;2024-02-04T12:59:09;13.60;58.00
78297;DHT22;67555;47.660;19.622;2024-02-04T13:01:40;13.60;58.00
78297;DHT22;67555;47.660;19.622;2024-02-04T13:04:05;13.60;58.20
78297;DHT22;67555;47.660;19.622;2024-02-04T13:06:36;13.60;58.20
78297;DHT22;67555;47.660;19.622;2024-02-04T13:09:03;13.60;58.20
78297;DHT22;67555;47.660;19.622;2024-02-04T13:11:31;13.50;57.30
78297;DHT22;67555;47.660;19.622;2024-02-04T13:13:56;13.40;57.80
78297;DHT22;67555;47.660;19.622;2024-02-04T13:16:22;13.40;58.10
78297;DHT22;67555;47.660;19.622;2024-02-04T13:18:53;13.50;58.40
78297;DHT22;67555;47.660;19.622;2024-02-04T13:21:19;13.50;58.50
78297;DHT22;67555;47.660;19.622;2024-02-04T13:23:47;13.50;58.60
78297;DHT22;67555;47.660;19.622;2024-02-04T13:26:14;13.50;58.60
78297;DHT22;67555;47.660;19.622;2024-02-04T13:28:40;13.50;58.60
78297;DHT22;67555;47.660;19.622;2024-02-04T13:31:06;13.50;58.70
78297;DHT22;67555;47.660;19.622;2024-02-04T13:33:32;13.50;58.70
78297;DHT22;67555;47.660;19.622;2024-02-04T13:35:58;13.50;58.80
78297;DHT22;67555;47.660;19.622;2024-02-04T13:38:24;13.50;58.90
78297;DHT22;67555;47.660;19.622;2024-02-04T13:40:50;13.50;58.90
78297;DHT22;67555;47.660;19.622;2024-02-04T13:43:16;13.50;58.80
78297;DHT22;67555;47.660;19.622;2024-02-04T13:45:42;13.60;58.60
78297;DHT22;67555;47.660;19.622;2024-02-04T13:48:08;13.60;58.60
78297;DHT22;67555;47.660;19.622;2024-02-04T13:50:33;13.60;58.20
78297;DHT22;67555;47.660;19.622;2024-02-04T13:53:01;13.50;58.20
78297;DHT22;67555;47.660;19.622;2024-02-04T13:55:26;13.50;57.50
78297;DHT22;67555;47.660;19.622;2024-02-04T13:57:52;13.50;57.90
78297;DHT22;67555;47.660;19.622;2024-02-04T14:00:18;13.50;58.00
78297;DHT22;67555;47.660;19.622;2024-02-04T14:02:44;13.50;57.50
78297;DHT22;67555;47.660;19.622;2024-02-04T14:05:09;13.60;57.70
78297;DHT22;67555;47.660;19.622;2024-02-04T14:07:36;13.80;57.60
78297;DHT22;67555;47.660;19.622;2024-02-04T14:10:02;13.90;57.60
78297;DHT22;67555;47.660;19.622;2024-02-04T14:12:28;13.90;57.70
78297;DHT22;67555;47.660;19.622;2024-02-04T14:14:54;13.90;57.80
78297;DHT22;67555;47.660;19.622;2024-02-04T14:17:20;13.90;57.90
78297;DHT22;67555;47.660;19.622;2024-02-04T14:19:46;13.90;58.00
78297;DHT22;67555;47.660;19.622;2024-02-04T14:22:15;13.90;57.90
78297;DHT22;67555;47.660;19.622;2024-02-04T14:24:42;13.80;58.00
78297;DHT22;67555;47.660;19.622;2024-02-04T14:27:08;13.70;58.00
78297;DHT22;67555;47.660;19.622;2024-02-04T14:29:34;13.60;58.00
78297;DHT22;67555;47.660;19.622;2024-02-04T14:32:00;13.50;58.20
78297;DHT22;67555;47.660;19.622;2024-02-04T14:34:26;13.50;58.40
78297;DHT22;67555;47.660;19.622;2024-02-04T14:36:53;13.50;58.60
78297;DHT22;67555;47.660;19.622;2024-02-04T14:39:20;13.50;58.70
78297;DHT22;67555;47.660;19.622;2024-02-04T14:41:46;13.40;58.70
78297;DHT22;67555;47.660;19.622;2024-02-04T14:44:12;13.40;58.80
78297;DHT22;67555;47.660;19.622;2024-02-04T14:46:38;13.40;58.90
78297;DHT22;67555;47.660;19.622;2024-02-04T14:49:04;13.30;58.90
78297;DHT22;67555;47.660;19.622;2024-02-04T14:51:30;13.30;59.00
78297;DHT22;67555;47.660;19.622;2024-02-04T14:54:00;13.30;59.00
78297;DHT22;67555;47.660;19.622;2024-02-04T14:56:26;13.30;59.00
78297;DHT22;67555;47.660;19.622;2024-02-04T14:58:52;13.30;59.00
78297;DHT22;67555;47.660;19.622;2024-02-04T15:01:18;13.30;59.00
78297;DHT22;67555;47.660;19.622;2024-02-04T15:03:43;13.20;59.10
78297;DHT22;67555;47.660;19.622;2024-02-04T15:06:09;13.10;59.30
78297;DHT22;67555;47.660;19.622;2024-02-04T15:08:35;13.10;59.30
78297;DHT22;67555;47.660;19.622;2024-02-04T15:11:00;13.10;59.40
78297;DHT22;67555;47.660;19.622;2024-02-04T15:13:26;13.10;59.60
78297;DHT22;67555;47.660;19.622;2024-02-04T15:15:52;13.10;59.70
78297;DHT22;67555;47.660;19.622;2024-02-04T15:18:18;13.00;59.70
78297;DHT22;67555;47.660;19.622;2024-02-04T15:20:44;12.90;59.80
78297;DHT22;67555;47.660;19.622;2024-02-04T15:23:10;12.80;60.00
78297;DHT22;67555;47.660;19.622;2024-02-04T15:25:36;12.70;60.30
78297;DHT22;67555;47.660;19.622;2024-02-04T15:28:03;12.70;60.40
78297;DHT22;67555;47.660;19.622;2024-02-04T15:30:30;12.70;60.50
78297;DHT22;67555;47.660;19.622;2024-02-04T15:32:57;12.60;60.70
78297;DHT22;67555;47.660;19.622;2024-02-04T15:35:23;12.50;60.70
78297;DHT22;67555;47.660;19.622;2024-02-04T15:37:50;12.50;60.70
78297;DHT22;67555;47.660;19.622;2024-02-04T15:40:16;12.50;61.00
78297;DHT22;67555;47.660;19.622;2024-02-04T15:42:42;12.30;61.10
78297;DHT22;67555;47.660;19.622;2024-02-04T15:45:09;12.30;61.30
78297;DHT22;67555;47.660;19.622;2024-02-04T15:47:40;12.20;61.50
78297;DHT22;67555;47.660;19.622;2024-02-04T15:50:09;12.10;61.60
78297;DHT22;67555;47.660;19.622;2024-02-04T15:52:35;12.10;61.70
78297;DHT22;67555;47.660;19.622;2024-02-04T15:55:01;12.00;61.80
78297;DHT22;67555;47.660;19.622;2024-02-04T15:57:30;11.90;62.00
78297;DHT22;67555;47.660;19.622;2024-02-04T15:59:58;11.90;62.20
78297;DHT22;67555;47.660;19.622;2024-02-04T16:02:27;11.80;62.40
78297;DHT22;67555;47.660;19.622;2024-02-04T16:04:53;11.70;62.90
78297;DHT22;67555;47.660;19.622;2024-02-04T16:07:20;11.60;63.10
78297;DHT22;67555;47.660;19.622;2024-02-04T16:09:48;11.60;63.20
78297;DHT22;67555;47.660;19.622;2024-02-04T16:12:18;11.50;63.30